Time;durP1;ratioP1;P1;durP2;ratioP2;P2;SDS_P1;SDS_P2;PMS_P1;PMS_P2;Temp;Humidity;BMP_temperature;BMP_pressure;BME280_temperature;BME280_humidity;BME280_pressure;Samples;Min_cycle;Max_cycle;Signal;HPM_P1;HPM_P2
2022/12/12 00:00:33;;;;;;;35.58;19.08;;;0.30;99.90;;;;;;5031659;28;20219;-49
2022/12/12 00:03:01;;;;;;;33.10;18.92;;;0.80;99.90;;;;;;5032481;28;20225;-49
2022/12/12 00:05:27;;;;;;;28.30;18.42;;;0.60;99.90;;;;;;5032418;28;20196;-48
2022/12/12 00:07:54;;;;;;;31.98;19.48;;;0.80;99.90;;;;;;5032381;28;20206;-49
2022/12/12 00:10:21;;;;;;;31.15;19.65;;;0.80;99.90;;;;;;5031668;28;20216;-49
2022/12/12 00:12:47;;;;;;;34.90;20.65;;;0.60;99.90;;;;;;5032451;28;20229;-49
2022/12/12 00:15:14;;;;;;;33.72;19.35;;;0.80;99.90;;;;;;5032369;28;20196;-50
2022/12/12 00:17:41;;;;;;;30.30;18.90;;;0.50;99.90;;;;;;5032099;28;20218;-50
2022/12/12 00:20:09;;;;;;;32.35;19.77;;;1.30;99.90;;;;;;5031675;28;20249;-49
2022/12/12 00:22:36;;;;;;;36.13;20.23;;;0.90;99.90;;;;;;5032342;28;20223;-49
2022/12/12 00:25:02;;;;;;;31.13;18.77;;;0.90;99.90;;;;;;5032247;28;20283;-50
2022/12/12 00:27:31;;;;;;;32.65;19.38;;;0.80;99.90;;;;;;5032223;28;20196;-50
2022/12/12 00:29:57;;;;;;;31.73;17.92;;;1.40;99.90;;;;;;5031339;28;20222;-49
2022/12/12 00:32:24;;;;;;;32.08;17.38;;;0.60;99.90;;;;;;5032306;28;20267;-48
2022/12/12 00:34:50;;;;;;;34.95;19.33;;;1.00;99.90;;;;;;5031820;28;20203;-49
2022/12/12 00:37:19;;;;;;;35.15;18.65;;;0.70;99.90;;;;;;5031845;28;20225;-48
2022/12/12 00:39:45;;;;;;;30.83;16.98;;;0.60;99.90;;;;;;5013714;28;20219;-48
2022/12/12 00:42:12;;;;;;;34.38;18.40;;;0.90;99.90;;;;;;5031995;28;20192;-49
2022/12/12 00:44:38;;;;;;;37.42;19.63;;;0.70;99.90;;;;;;5031909;28;20303;-48
2022/12/12 00:47:05;;;;;;;34.33;19.13;;;0.90;99.90;;;;;;5031960;28;20205;-49
2022/12/12 00:49:32;;;;;;;41.95;19.92;;;0.80;99.90;;;;;;5031065;28;20234;-48
2022/12/12 00:51:58;;;;;;;34.78;20.00;;;1.30;99.90;;;;;;5032000;28;20198;-48
2022/12/12 00:54:26;;;;;;;30.27;18.77;;;0.90;99.90;;;;;;5031978;28;20192;-48
2022/12/12 00:56:53;;;;;;;38.38;19.60;;;0.60;99.90;;;;;;5031757;28;20216;-49
2022/12/12 00:59:20;;;;;;;32.00;17.70;;;0.80;99.90;;;;;;5031118;28;20225;-49
2022/12/12 01:01:46;;;;;;;32.35;18.73;;;0.80;99.90;;;;;;5031802;28;20198;-48
2022/12/12 01:04:13;;;;;;;36.83;18.50;;;0.10;99.90;;;;;;5031857;28;20198;-49
2022/12/12 01:06:40;;;;;;;36.63;19.50;;;0.70;99.90;;;;;;5031817;28;20192;-48
2022/12/12 01:09:06;;;;;;;33.72;19.75;;;0.30;99.90;;;;;;5030958;28;20226;-48
2022/12/12 01:11:34;;;;;;;36.75;19.65;;;1.30;99.90;;;;;;5031747;28;20204;-49
2022/12/12 01:14:01;;;;;;;31.13;19.08;;;0.60;99.90;;;;;;5031719;28;20196;-48
2022/12/12 01:16:28;;;;;;;35.88;19.00;;;0.10;99.90;;;;;;5031754;28;20196;-49
2022/12/12 01:18:55;;;;;;;31.25;19.48;;;0.50;99.90;;;;;;5030925;28;20222;-49
2022/12/12 01:21:22;;;;;;;34.05;19.10;;;0.80;99.90;;;;;;5031644;28;20211;-49
2022/12/12 01:23:49;;;;;;;35.92;20.02;;;0.70;99.90;;;;;;5031911;28;20208;-48
2022/12/12 01:26:17;;;;;;;36.67;19.10;;;0.40;99.90;;;;;;5032261;28;20197;-49
2022/12/12 01:28:46;;;;;;;36.53;19.85;;;0.60;99.90;;;;;;5031221;28;20220;-48
2022/12/12 01:31:14;;;;;;;37.00;18.60;;;0.50;99.90;;;;;;5014023;28;20200;-48
2022/12/12 01:33:44;;;;;;;36.40;20.90;;;0.60;99.90;;;;;;5031652;28;20207;-48
2022/12/12 01:36:15;;;;;;;38.95;20.98;;;0.50;99.90;;;;;;5031674;28;20660;-48
2022/12/12 01:39:03;;;;;;;35.53;21.27;;;0.60;99.90;;;;;;4972676;28;20272;-48
2022/12/12 01:41:29;;;;;;;37.38;20.00;;;0.20;99.90;;;;;;4990153;28;20235;-47
2022/12/12 01:44:01;;;;;;;37.13;18.30;;;0.70;99.90;;;;;;5005508;28;20642;-47
2022/12/12 01:46:39;;;;;;;34.53;19.00;;;0.30;99.90;;;;;;5032528;28;20561;-48
2022/12/12 01:49:12;;;;;;;30.30;17.92;;;0.40;99.90;;;;;;5035148;28;20219;-47
2022/12/12 01:51:40;;;;;;;33.17;18.85;;;0.40;99.90;;;;;;5036153;28;20202;-49
2022/12/12 01:54:11;;;;;;;35.03;18.02;;;0.60;99.90;;;;;;5036405;28;20213;-48
2022/12/12 01:56:39;;;;;;;38.25;19.08;;;0.60;99.90;;;;;;5036262;28;20193;-47
2022/12/12 01:59:10;;;;;;;34.80;19.05;;;0.80;99.90;;;;;;5017465;28;20235;-48
2022/12/12 02:01:38;;;;;;;31.73;18.30;;;0.70;99.90;;;;;;5035435;28;20196;-49
2022/12/12 02:04:07;;;;;;;33.22;18.88;;;0.90;99.90;;;;;;5035600;28;20220;-49
2022/12/12 02:06:35;;;;;;;30.70;17.02;;;1.00;99.90;;;;;;5035805;28;20229;-48
2022/12/12 02:09:06;;;;;;;30.88;17.58;;;0.80;99.90;;;;;;5034518;28;20230;-49
2022/12/12 02:11:35;;;;;;;32.00;18.05;;;0.60;99.90;;;;;;5035529;28;20199;-49
2022/12/12 02:14:02;;;;;;;30.35;17.27;;;0.80;99.90;;;;;;5035370;28;20207;-49
2022/12/12 02:16:55;;;;;;;35.60;19.60;;;0.80;99.90;;;;;;5035388;28;20639;-49
2022/12/12 02:19:54;;;;;;;33.25;17.98;;;0.70;99.90;;;;;;5033785;28;20230;-48
2022/12/12 02:22:35;;;;;;;38.13;17.50;;;0.80;99.90;;;;;;5016587;28;20265;-48
2022/12/12 02:25:27;;;;;;;34.78;18.60;;;0.90;99.90;;;;;;5034437;28;20560;-48
2022/12/12 02:28:15;;;;;;;34.63;17.35;;;0.80;99.90;;;;;;5016434;28;20210;-49
2022/12/12 02:30:47;;;;;;;43.00;19.95;;;1.00;99.90;;;;;;5033570;28;20201;-48
2022/12/12 02:33:26;;;;;;;32.58;17.38;;;0.60;99.90;;;;;;5034519;28;20189;-50
2022/12/12 02:36:05;;;;;;;35.67;18.08;;;0.00;99.90;;;;;;5034242;28;20198;-49
2022/12/12 02:38:40;;;;;;;41.22;19.40;;;0.70;99.90;;;;;;5033362;28;20219;-49
2022/12/12 02:41:17;;;;;;;43.90;20.13;;;0.90;99.90;;;;;;5034072;28;20203;-49
2022/12/12 02:43:53;;;;;;;40.05;19.77;;;0.80;99.90;;;;;;5034026;28;20203;-49
2022/12/12 02:46:25;;;;;;;37.17;19.85;;;1.00;99.90;;;;;;5033913;28;20203;-50
2022/12/12 02:48:59;;;;;;;42.13;21.58;;;0.60;99.90;;;;;;5033045;28;20227;-49
2022/12/12 02:51:27;;;;;;;36.10;20.83;;;1.00;99.90;;;;;;5033894;28;20199;-48
2022/12/12 02:53:54;;;;;;;37.10;19.05;;;0.70;99.90;;;;;;5033726;28;20283;-49
2022/12/12 02:56:44;;;;;;;35.50;18.42;;;1.50;99.90;;;;;;5033788;28;20199;-50
2022/12/12 02:59:16;;;;;;;37.03;19.42;;;1.00;99.90;;;;;;5032055;28;20257;-49
2022/12/12 03:01:53;;;;;;;32.60;17.48;;;0.90;99.90;;;;;;5033417;28;20194;-50
2022/12/12 03:10:16;;;;;;;36.67;18.25;;;0.20;99.90;;;;;;5033011;28;20264;-51
2022/12/12 03:12:57;;;;;;;37.00;18.80;;;0.70;99.90;;;;;;5033356;28;20222;-49
2022/12/12 03:15:32;;;;;;;33.15;19.55;;;0.80;99.90;;;;;;5033568;28;20657;-49
2022/12/12 03:18:09;;;;;;;31.90;18.45;;;0.90;99.90;;;;;;5033257;28;20577;-49
2022/12/12 03:20:44;;;;;;;36.92;19.50;;;0.80;99.90;;;;;;5032652;28;20715;-49
2022/12/12 03:23:15;;;;;;;35.42;18.30;;;0.80;99.90;;;;;;5033233;28;20612;-49
2022/12/12 03:25:47;;;;;;;41.15;19.00;;;0.50;99.90;;;;;;5033123;28;20203;-49
2022/12/12 03:28:18;;;;;;;39.35;18.98;;;1.20;99.90;;;;;;5033249;28;20198;-49
2022/12/12 03:30:51;;;;;;;41.50;20.23;;;0.80;99.90;;;;;;5032667;28;20210;-49
2022/12/12 03:33:20;;;;;;;42.05;19.90;;;1.00;99.90;;;;;;5033012;28;20211;-49
2022/12/12 03:35:55;;;;;;;40.80;19.65;;;0.90;99.90;;;;;;5033224;28;20207;-49
2022/12/12 03:38:25;;;;;;;38.67;19.45;;;1.10;99.90;;;;;;5032716;28;20227;-50
2022/12/12 03:40:55;;;;;;;43.15;20.63;;;1.10;99.90;;;;;;5032895;28;20210;-49
2022/12/12 03:43:24;;;;;;;35.00;19.15;;;1.20;99.90;;;;;;5032953;28;20200;-50
2022/12/12 03:45:55;;;;;;;33.08;18.65;;;1.10;99.90;;;;;;5032821;28;20203;-49
2022/12/12 03:48:27;;;;;;;35.85;18.50;;;1.10;99.90;;;;;;5032402;28;20600;-50
2022/12/12 03:50:59;;;;;;;36.17;17.77;;;0.40;99.90;;;;;;5032791;28;20205;-50
2022/12/12 03:53:33;;;;;;;34.95;18.33;;;1.10;99.90;;;;;;5032654;28;20574;-49
2022/12/12 03:56:03;;;;;;;36.58;16.88;;;0.80;99.90;;;;;;5032504;28;20219;-49
2022/12/12 03:58:34;;;;;;;35.40;18.05;;;1.00;99.90;;;;;;5014159;28;20238;-49
2022/12/12 04:01:06;;;;;;;35.75;19.98;;;1.10;99.90;;;;;;5032580;28;20211;-48
2022/12/12 04:03:39;;;;;;;37.90;18.80;;;1.20;99.90;;;;;;5032648;28;20201;-49
2022/12/12 04:06:27;;;;;;;34.05;17.20;;;0.70;99.90;;;;;;5032672;28;20754;-49
2022/12/12 04:14:43;;;;;;;25.83;14.95;;;1.10;99.90;;;;;;5032413;28;20200;-49
2022/12/12 04:17:14;;;;;;;24.75;13.60;;;1.20;99.90;;;;;;5032299;28;20208;-50
2022/12/12 04:26:37;;;;;;;29.30;16.05;;;0.90;99.90;;;;;;5032499;28;20556;-49
2022/12/12 04:28:28;;;;;;;29.40;16.10;;;1.10;99.90;;;;;;5031260;28;20201;-50
2022/12/12 04:31:01;;;;;;;38.33;17.63;;;1.00;99.90;;;;;;5032178;28;20703;-49
2022/12/12 04:33:33;;;;;;;31.77;16.80;;;1.20;99.90;;;;;;5032871;28;20197;-49
2022/12/12 04:36:01;;;;;;;31.65;16.73;;;1.00;99.90;;;;;;5031993;28;20197;-50
2022/12/12 04:38:29;;;;;;;31.02;16.35;;;0.70;99.90;;;;;;5031295;28;20717;-50
2022/12/12 04:40:59;;;;;;;37.35;16.55;;;0.90;99.90;;;;;;5032079;28;20191;-49
2022/12/12 04:43:30;;;;;;;29.73;14.10;;;1.30;99.90;;;;;;5031899;28;20208;-49
2022/12/12 04:46:00;;;;;;;32.72;15.80;;;1.20;99.90;;;;;;5032030;28;20204;-49
2022/12/12 04:48:31;;;;;;;26.98;14.65;;;1.30;99.90;;;;;;5031430;28;20527;-50
2022/12/12 04:51:00;;;;;;;26.90;14.35;;;1.20;99.90;;;;;;5032835;28;20203;-50
2022/12/12 04:53:33;;;;;;;27.27;14.25;;;1.30;99.90;;;;;;5032060;28;20208;-49
2022/12/12 04:56:02;;;;;;;28.05;14.45;;;1.30;99.90;;;;;;5031943;28;20207;-48
2022/12/12 04:58:29;;;;;;;23.77;13.98;;;1.20;99.90;;;;;;5031133;28;20226;-47
2022/12/12 05:00:59;;;;;;;29.02;15.68;;;1.40;99.90;;;;;;5031662;28;20677;-49
2022/12/12 05:03:34;;;;;;;23.35;14.50;;;1.30;99.90;;;;;;5031732;28;20203;-48
2022/12/12 05:06:06;;;;;;;19.48;12.10;;;1.30;99.90;;;;;;5031701;28;20217;-49
2022/12/12 05:08:37;;;;;;;21.10;12.48;;;1.00;99.90;;;;;;5031048;28;20196;-47
2022/12/12 05:11:06;;;;;;;22.83;12.50;;;1.30;99.90;;;;;;5031804;28;20566;-48
2022/12/12 05:13:35;;;;;;;21.77;12.80;;;1.10;99.90;;;;;;5031984;28;20243;-47
2022/12/12 05:16:07;;;;;;;18.50;11.50;;;1.40;99.90;;;;;;5031880;28;20694;-47
2022/12/12 05:18:33;;;;;;;20.60;12.32;;;1.30;99.90;;;;;;5030996;28;20239;-47
2022/12/12 05:21:00;;;;;;;15.88;11.20;;;1.20;99.90;;;;;;5031944;28;20196;-47
2022/12/12 05:23:27;;;;;;;17.60;10.98;;;0.50;99.90;;;;;;5035219;28;20661;-48
2022/12/12 05:25:55;;;;;;;14.55;10.15;;;1.20;99.90;;;;;;5035246;28;20564;-48
2022/12/12 05:28:22;;;;;;;13.40;9.80;;;1.20;99.90;;;;;;5035092;28;20569;-48
2022/12/12 05:30:49;;;;;;;14.52;9.82;;;1.20;99.90;;;;;;5035393;28;20199;-49
2022/12/12 05:33:15;;;;;;;16.42;10.80;;;1.30;99.90;;;;;;5035558;28;20561;-50
2022/12/12 05:35:42;;;;;;;16.67;10.20;;;1.20;99.90;;;;;;5035231;28;20201;-50
2022/12/12 05:38:08;;;;;;;14.27;10.38;;;1.30;99.90;;;;;;5034957;28;20626;-50
2022/12/12 05:40:35;;;;;;;11.57;8.52;;;1.30;99.90;;;;;;5034335;28;20221;-50
2022/12/12 05:43:03;;;;;;;14.85;10.40;;;1.20;99.90;;;;;;5035326;28;20596;-50
2022/12/12 05:45:30;;;;;;;13.70;9.80;;;1.00;99.90;;;;;;5034981;28;20208;-50
2022/12/12 05:47:57;;;;;;;15.07;10.55;;;1.20;99.90;;;;;;5035403;28;20605;-50
2022/12/12 05:50:23;;;;;;;12.18;9.10;;;1.50;99.90;;;;;;5034200;28;20227;-51
2022/12/12 05:52:50;;;;;;;14.52;9.75;;;1.40;99.90;;;;;;5034954;28;20675;-50
2022/12/12 05:55:17;;;;;;;13.73;9.90;;;1.10;99.90;;;;;;5034590;28;20200;-50
2022/12/12 05:57:43;;;;;;;12.13;8.73;;;1.20;99.90;;;;;;5034782;28;20206;-50
2022/12/12 06:00:12;;;;;;;15.45;10.05;;;1.30;99.90;;;;;;5033901;28;20291;-50
2022/12/12 06:02:39;;;;;;;12.43;9.32;;;1.40;99.90;;;;;;5034841;28;20197;-51
2022/12/12 06:05:06;;;;;;;14.40;8.90;;;1.30;99.90;;;;;;5034874;28;20203;-51
2022/12/12 06:07:32;;;;;;;10.23;7.65;;;1.20;99.90;;;;;;5034566;28;20196;-51
2022/12/12 06:09:59;;;;;;;12.55;9.23;;;1.40;99.90;;;;;;5033832;28;20695;-51
2022/12/12 06:12:26;;;;;;;16.13;8.73;;;1.30;99.90;;;;;;5034636;28;20211;-50
2022/12/12 06:14:52;;;;;;;14.18;8.88;;;1.40;99.90;;;;;;5034718;28;20280;-50
2022/12/12 06:17:20;;;;;;;11.07;8.70;;;1.20;99.90;;;;;;5034391;28;20568;-50
2022/12/12 06:19:47;;;;;;;10.38;8.27;;;1.20;99.90;;;;;;5033566;28;20235;-50
2022/12/12 06:22:14;;;;;;;9.95;8.30;;;1.30;99.90;;;;;;5034169;28;20203;-51
2022/12/12 06:24:40;;;;;;;10.38;8.27;;;1.30;99.90;;;;;;5034007;28;20192;-51
2022/12/12 06:27:07;;;;;;;8.68;7.55;;;1.40;99.90;;;;;;5034027;28;20208;-51
2022/12/12 06:29:34;;;;;;;10.48;7.55;;;1.10;99.90;;;;;;5033277;28;20227;-51
2022/12/12 06:32:00;;;;;;;10.32;7.65;;;1.40;99.90;;;;;;5033383;28;20282;-52
2022/12/12 06:34:28;;;;;;;10.13;7.68;;;1.20;99.90;;;;;;5032817;28;20199;-51
2022/12/12 06:36:55;;;;;;;10.52;7.45;;;1.30;99.90;;;;;;5033889;28;20700;-51
2022/12/12 06:39:22;;;;;;;7.78;6.50;;;1.10;99.90;;;;;;5032687;28;20221;-50
2022/12/12 06:41:48;;;;;;;10.57;8.77;;;1.30;99.90;;;;;;5033505;28;20571;-50
2022/12/12 06:44:15;;;;;;;12.20;7.78;;;1.30;99.90;;;;;;5033760;28;20613;-50
2022/12/12 06:46:42;;;;;;;8.93;7.22;;;1.20;99.90;;;;;;5033960;28;20200;-50
2022/12/12 06:49:09;;;;;;;10.25;7.45;;;1.30;99.90;;;;;;5032194;28;20239;-49
2022/12/12 06:51:42;;;;;;;11.45;7.05;;;1.20;99.90;;;;;;5033817;28;20232;-50
2022/12/12 06:54:10;;;;;;;9.40;7.75;;;1.10;99.90;;;;;;5033528;28;20620;-52
2022/12/12 06:56:36;;;;;;;9.18;6.53;;;1.30;99.90;;;;;;5033117;28;20576;-50
2022/12/12 06:59:03;;;;;;;9.63;7.10;;;1.20;99.90;;;;;;5032822;28;20221;-50
2022/12/12 07:01:30;;;;;;;8.73;6.88;;;0.60;99.90;;;;;;5015524;28;20209;-50
2022/12/12 07:03:57;;;;;;;8.18;6.93;;;1.30;99.90;;;;;;5032836;28;20219;-50
2022/12/12 07:06:24;;;;;;;12.45;7.50;;;1.30;99.90;;;;;;5033046;28;20201;-49
2022/12/12 07:08:52;;;;;;;10.32;7.38;;;1.20;99.90;;;;;;5014244;28;20227;-49
2022/12/12 07:11:21;;;;;;;14.40;7.57;;;1.20;99.90;;;;;;5033094;28;20200;-49
2022/12/12 07:13:48;;;;;;;10.00;8.40;;;1.30;99.90;;;;;;5015114;28;20195;-49
2022/12/12 07:16:15;;;;;;;8.80;7.28;;;1.30;99.90;;;;;;5033487;28;20275;-49
2022/12/12 07:18:42;;;;;;;9.85;8.00;;;1.30;99.90;;;;;;5032394;28;20224;-50
2022/12/12 07:21:12;;;;;;;8.10;6.68;;;1.20;99.90;;;;;;5032828;28;20662;-50
2022/12/12 07:23:39;;;;;;;9.32;8.00;;;1.50;99.90;;;;;;5032888;28;20681;-50
2022/12/12 07:26:09;;;;;;;10.60;8.30;;;1.40;99.90;;;;;;5032869;28;20219;-50
2022/12/12 07:28:36;;;;;;;9.10;7.88;;;1.50;99.90;;;;;;5031861;28;20223;-50
2022/12/12 07:31:06;;;;;;;10.38;7.70;;;1.30;99.90;;;;;;5032454;28;20232;-51
2022/12/12 07:33:33;;;;;;;8.68;6.97;;;1.40;99.90;;;;;;5032558;28;20700;-52
2022/12/12 07:36:00;;;;;;;10.32;7.78;;;1.30;99.90;;;;;;5032440;28;20196;-51
2022/12/12 07:38:28;;;;;;;12.13;8.15;;;1.40;99.90;;;;;;5031478;28;20243;-49
2022/12/12 07:40:55;;;;;;;9.80;7.47;;;1.00;99.90;;;;;;5032307;28;20310;-49
2022/12/12 07:43:23;;;;;;;10.40;7.97;;;0.60;99.90;;;;;;5032150;28;20199;-50
2022/12/12 07:45:49;;;;;;;13.02;9.57;;;1.20;99.90;;;;;;5032161;28;20200;-50
2022/12/12 07:48:16;;;;;;;11.02;7.75;;;1.40;99.90;;;;;;5032435;28;20246;-51
2022/12/12 07:50:43;;;;;;;8.43;7.43;;;1.20;99.90;;;;;;5031052;28;20200;-50
2022/12/12 07:53:09;;;;;;;10.13;7.45;;;1.40;99.90;;;;;;5032372;28;20200;-50
2022/12/12 07:55:39;;;;;;;8.85;7.85;;;1.30;99.90;;;;;;5031985;28;20199;-51
2022/12/12 07:58:06;;;;;;;9.52;7.15;;;1.40;99.90;;;;;;5031743;28;20210;-51
2022/12/12 08:00:33;;;;;;;8.55;7.03;;;1.90;99.90;;;;;;5030738;28;20228;-50
2022/12/12 08:03:00;;;;;;;9.93;7.82;;;1.30;99.90;;;;;;5032365;28;20197;-50
2022/12/12 08:05:27;;;;;;;8.10;6.95;;;1.40;99.90;;;;;;5032245;28;20232;-50
2022/12/12 08:07:54;;;;;;;7.72;6.93;;;1.10;99.90;;;;;;5032430;28;20203;-50
2022/12/12 08:10:21;;;;;;;9.80;7.50;;;1.20;99.90;;;;;;5013529;28;20699;-50
2022/12/12 08:12:47;;;;;;;8.13;6.65;;;1.50;99.90;;;;;;5031967;28;20207;-50
2022/12/12 08:15:16;;;;;;;10.05;7.32;;;1.50;99.90;;;;;;5032236;28;20200;-51
2022/12/12 08:17:44;;;;;;;10.30;7.53;;;0.80;99.90;;;;;;5032230;28;20208;-50
2022/12/12 08:20:11;;;;;;;9.75;7.20;;;1.30;99.90;;;;;;5030894;28;20216;-50
2022/12/12 08:22:38;;;;;;;9.85;7.88;;;1.90;99.90;;;;;;5031844;28;20201;-50
2022/12/12 08:25:05;;;;;;;11.07;7.40;;;1.20;99.90;;;;;;5031724;28;20196;-50
2022/12/12 08:27:32;;;;;;;12.82;9.02;;;1.30;99.90;;;;;;5031880;28;20196;-50
2022/12/12 08:29:58;;;;;;;11.18;8.68;;;1.20;99.90;;;;;;5030750;28;20216;-50
2022/12/12 08:32:25;;;;;;;10.07;8.10;;;1.40;99.90;;;;;;5031402;28;20251;-50
2022/12/12 08:34:57;;;;;;;8.52;7.20;;;1.40;99.90;;;;;;5014096;28;20208;-51
2022/12/12 08:37:24;;;;;;;9.40;7.75;;;0.60;99.90;;;;;;5031902;28;20219;-50
2022/12/12 08:39:51;;;;;;;8.30;7.10;;;1.40;99.90;;;;;;5031088;28;20635;-51
2022/12/12 08:42:18;;;;;;;8.27;5.97;;;1.40;99.90;;;;;;5032311;28;20227;-51
2022/12/12 08:44:44;;;;;;;7.72;6.30;;;1.40;99.90;;;;;;5032319;28;20207;-50
2022/12/12 08:47:11;;;;;;;9.70;7.50;;;1.50;99.90;;;;;;5032212;28;20665;-50
2022/12/12 08:49:38;;;;;;;10.55;6.90;;;1.20;99.90;;;;;;5032169;28;20221;-51
2022/12/12 08:52:08;;;;;;;8.43;6.95;;;1.40;99.90;;;;;;5032056;28;20212;-51
2022/12/12 08:54:35;;;;;;;9.02;7.65;;;1.20;99.90;;;;;;5031738;28;20216;-49
2022/12/12 08:57:02;;;;;;;8.52;7.22;;;0.80;99.90;;;;;;5033084;28;20236;-51
2022/12/12 08:59:29;;;;;;;8.90;6.53;;;1.20;99.90;;;;;;5034540;28;20300;-50
2022/12/12 09:01:56;;;;;;;8.00;6.07;;;1.50;99.90;;;;;;5035234;28;20197;-51
2022/12/12 09:04:23;;;;;;;9.80;6.30;;;1.20;99.90;;;;;;5035049;28;20200;-51
2022/12/12 09:06:50;;;;;;;8.02;6.75;;;1.40;99.90;;;;;;5035000;28;20591;-51
2022/12/12 09:09:18;;;;;;;8.25;6.70;;;1.20;99.90;;;;;;5034463;28;20488;-51
2022/12/12 09:11:44;;;;;;;7.70;6.47;;;1.30;99.90;;;;;;5035477;28;20282;-51
2022/12/12 09:14:11;;;;;;;8.10;5.65;;;1.40;99.90;;;;;;5035085;28;20211;-51
2022/12/12 09:16:38;;;;;;;8.48;6.18;;;1.50;99.90;;;;;;5035206;28;20279;-50
2022/12/12 09:19:05;;;;;;;6.75;5.60;;;1.30;99.90;;;;;;5034351;28;20549;-50
2022/12/12 09:21:31;;;;;;;8.65;7.68;;;1.40;99.90;;;;;;5035038;28;20231;-50
2022/12/12 09:23:58;;;;;;;7.30;6.55;;;1.40;99.90;;;;;;5034845;28;20271;-50
2022/12/12 09:26:26;;;;;;;6.78;6.00;;;1.20;99.90;;;;;;5035264;28;20320;-50
2022/12/12 09:28:53;;;;;;;8.40;6.70;;;1.30;99.90;;;;;;5034507;28;20217;-50
2022/12/12 09:31:20;;;;;;;8.10;6.97;;;1.30;99.90;;;;;;5034588;28;20208;-50
2022/12/12 09:33:49;;;;;;;9.75;7.38;;;1.30;99.90;;;;;;5035021;28;20196;-50
2022/12/12 09:36:16;;;;;;;11.63;8.27;;;1.50;99.90;;;;;;5017621;28;20728;-49
2022/12/12 09:38:43;;;;;;;10.88;7.60;;;1.30;99.90;;;;;;5034578;28;20228;-49
2022/12/12 09:41:17;;;;;;;11.50;7.60;;;1.50;99.90;;;;;;5034801;28;20228;-49
2022/12/12 09:43:50;;;;;;;9.85;7.30;;;1.50;99.90;;;;;;5034786;28;20200;-49
2022/12/12 09:46:26;;;;;;;10.38;7.90;;;0.80;99.90;;;;;;5034669;28;20318;-51
2022/12/12 09:49:02;;;;;;;8.32;7.00;;;1.50;99.90;;;;;;5033894;28;20228;-52
2022/12/12 09:51:29;;;;;;;8.65;7.15;;;1.20;99.90;;;;;;5034484;28;20199;-52
2022/12/12 09:53:56;;;;;;;7.30;5.70;;;1.20;99.90;;;;;;5034542;28;20205;-50
2022/12/12 09:56:31;;;;;;;6.40;5.47;;;1.30;99.90;;;;;;5034704;28;20203;-50
2022/12/12 09:59:05;;;;;;;7.95;6.85;;;1.10;99.90;;;;;;5033879;28;20227;-50
2022/12/12 10:01:37;;;;;;;7.43;6.00;;;1.20;99.90;;;;;;5034664;28;20704;-52
2022/12/12 10:04:13;;;;;;;9.90;7.25;;;1.80;99.90;;;;;;5034728;28;20201;-51
2022/12/12 10:06:46;;;;;;;6.45;5.40;;;0.60;99.90;;;;;;5034659;28;20197;-51
2022/12/12 10:09:38;;;;;;;6.88;5.70;;;1.00;99.90;;;;;;5033279;28;20701;-51
2022/12/12 10:12:07;;;;;;;6.65;5.28;;;1.30;99.90;;;;;;5034185;28;20667;-51
2022/12/12 10:14:39;;;;;;;14.35;6.18;;;1.00;99.90;;;;;;5033902;28;20594;-52
2022/12/12 10:17:11;;;;;;;9.32;6.38;;;1.00;99.90;;;;;;5034562;28;20204;-51
2022/12/12 10:19:46;;;;;;;7.55;5.85;;;1.20;99.90;;;;;;5032680;28;20220;-51
2022/12/12 10:22:19;;;;;;;6.68;5.18;;;1.00;99.90;;;;;;5034085;28;20222;-51
2022/12/12 10:24:50;;;;;;;5.47;4.72;;;1.00;99.90;;;;;;5034195;28;20204;-51
2022/12/12 10:27:18;;;;;;;5.95;4.85;;;1.60;99.90;;;;;;5016167;28;20211;-51
2022/12/12 10:29:48;;;;;;;7.35;6.00;;;1.00;99.90;;;;;;5033107;28;20216;-51
2022/12/12 10:32:28;;;;;;;6.55;5.40;;;0.80;99.90;;;;;;5033841;28;20231;-51
2022/12/12 10:35:08;;;;;;;6.07;5.18;;;0.70;99.90;;;;;;5015917;28;20300;-51
2022/12/12 10:37:43;;;;;;;7.57;5.10;;;1.00;99.90;;;;;;5033582;28;20796;-51
2022/12/12 10:40:23;;;;;;;6.45;5.85;;;0.40;99.90;;;;;;5015059;28;20220;-51
2022/12/12 10:42:57;;;;;;;5.90;5.30;;;1.40;99.90;;;;;;5033753;28;20203;-51
2022/12/12 10:45:52;;;;;;;8.90;6.18;;;0.80;99.90;;;;;;5033685;28;20290;-51
2022/12/12 10:48:19;;;;;;;5.75;4.50;;;1.00;99.90;;;;;;5023880;28;20253;-51
2022/12/12 10:50:49;;;;;;;7.40;4.60;;;0.90;99.90;;;;;;5033240;28;20664;-51
2022/12/12 10:53:16;;;;;;;6.45;4.55;;;0.70;99.90;;;;;;5033289;28;20212;-50
2022/12/12 10:55:51;;;;;;;5.82;4.85;;;1.00;99.90;;;;;;5033159;28;20284;-50
2022/12/12 10:58:17;;;;;;;6.65;4.38;;;0.60;99.90;;;;;;5033061;28;20624;-51
2022/12/12 11:00:48;;;;;;;6.10;4.40;;;0.80;99.90;;;;;;5032570;28;20220;-50
2022/12/12 11:03:26;;;;;;;5.68;4.70;;;0.90;99.90;;;;;;5033232;28;20212;-49
2022/12/12 11:05:54;;;;;;;7.25;4.35;;;0.80;99.90;;;;;;5033220;28;20207;-49
2022/12/12 11:08:26;;;;;;;5.97;4.80;;;0.80;99.90;;;;;;5033001;28;20199;-52
2022/12/12 11:11:02;;;;;;;6.70;5.65;;;0.90;99.90;;;;;;5032899;28;20207;-49
2022/12/12 11:13:30;;;;;;;7.97;5.85;;;0.90;99.90;;;;;;5032833;28;20203;-49
2022/12/12 11:16:00;;;;;;;6.60;4.95;;;0.80;99.90;;;;;;5032972;28;20605;-50
2022/12/12 11:18:29;;;;;;;7.00;5.28;;;0.90;99.90;;;;;;5032360;28;20203;-49
2022/12/12 11:21:06;;;;;;;7.97;5.93;;;0.80;99.90;;;;;;5032216;28;20232;-49
2022/12/12 11:23:35;;;;;;;7.40;5.30;;;0.90;99.90;;;;;;5032830;28;20219;-50
2022/12/12 11:26:04;;;;;;;8.32;5.65;;;0.90;99.90;;;;;;5032977;28;20730;-51
2022/12/12 11:28:33;;;;;;;8.48;6.10;;;0.70;99.90;;;;;;5031633;28;20214;-49
2022/12/12 11:31:03;;;;;;;6.88;5.68;;;0.90;99.90;;;;;;5032665;28;20192;-49
2022/12/12 11:33:35;;;;;;;7.82;6.15;;;1.00;99.90;;;;;;5032926;28;20200;-49
2022/12/12 11:36:05;;;;;;;11.10;6.13;;;0.90;99.90;;;;;;5032370;28;20204;-49
2022/12/12 11:38:38;;;;;;;6.78;5.65;;;0.90;99.90;;;;;;5031851;28;20257;-48
2022/12/12 11:41:06;;;;;;;6.90;6.15;;;1.20;99.90;;;;;;5032594;28;20227;-51
2022/12/12 11:43:35;;;;;;;7.30;5.85;;;0.90;99.90;;;;;;5032577;28;20206;-49
2022/12/12 11:46:06;;;;;;;8.10;6.30;;;1.30;99.90;;;;;;5032296;28;20206;-49
2022/12/12 11:48:39;;;;;;;8.98;6.28;;;1.10;99.90;;;;;;5031361;28;20193;-49
2022/12/12 11:51:07;;;;;;;8.30;6.05;;;1.10;99.90;;;;;;5032547;28;20201;-49
2022/12/12 11:53:38;;;;;;;8.27;5.28;;;1.20;99.90;;;;;;5032528;28;20200;-49
2022/12/12 11:56:15;;;;;;;8.35;5.95;;;1.30;99.90;;;;;;5032174;28;20211;-49
2022/12/12 11:58:46;;;;;;;7.10;6.40;;;0.90;99.90;;;;;;5031008;28;20223;-50
2022/12/12 12:01:21;;;;;;;7.50;6.72;;;1.20;99.90;;;;;;5032187;28;20224;-50
2022/12/12 12:04:04;;;;;;;8.00;6.57;;;0.60;99.90;;;;;;5031852;28;20614;-50
2022/12/12 12:06:41;;;;;;;6.93;6.22;;;1.20;99.90;;;;;;5031839;28;20200;-49
2022/12/12 12:09:19;;;;;;;7.72;6.90;;;1.30;99.90;;;;;;5031171;28;20629;-50
2022/12/12 12:11:55;;;;;;;8.43;6.95;;;0.50;99.90;;;;;;5031891;28;20200;-49
2022/12/12 12:14:48;;;;;;;8.80;7.13;;;1.00;99.90;;;;;;5031575;28;20205;-50
2022/12/12 12:17:25;;;;;;;8.55;7.65;;;1.20;99.90;;;;;;5032050;28;20836;-50
2022/12/12 12:20:03;;;;;;;10.07;7.80;;;1.30;99.90;;;;;;5031065;28;20226;-49
2022/12/12 12:22:43;;;;;;;9.65;8.18;;;1.10;99.90;;;;;;5031670;28;20189;-50
2022/12/12 12:25:23;;;;;;;10.95;8.50;;;1.30;99.90;;;;;;5031480;28;20264;-50
2022/12/12 12:27:59;;;;;;;10.38;8.77;;;0.80;99.90;;;;;;5031466;28;20200;-50
2022/12/12 12:30:31;;;;;;;12.10;8.70;;;1.00;99.90;;;;;;5030777;28;20291;-50
2022/12/12 12:33:18;;;;;;;10.77;9.15;;;1.50;99.90;;;;;;5030742;28;20285;-51
2022/12/12 12:35:58;;;;;;;8.55;6.90;;;1.20;99.90;;;;;;5031840;28;20201;-49
2022/12/12 12:38:32;;;;;;;8.82;6.43;;;1.20;99.90;;;;;;5031163;28;20264;-49
2022/12/12 12:41:23;;;;;;;9.43;5.30;;;1.10;99.90;;;;;;5031561;28;20225;-50
2022/12/12 12:44:03;;;;;;;7.82;5.25;;;0.90;99.90;;;;;;5031349;28;20557;-48
2022/12/12 12:46:39;;;;;;;6.55;5.28;;;1.20;99.90;;;;;;5031395;28;20195;-49
2022/12/12 12:49:14;;;;;;;7.10;5.40;;;0.90;99.90;;;;;;5030765;28;20338;-49
2022/12/12 12:51:47;;;;;;;6.93;6.22;;;0.90;99.90;;;;;;5031481;28;20279;-50
2022/12/12 12:54:20;;;;;;;7.03;5.50;;;0.70;99.90;;;;;;5031557;28;20661;-49
2022/12/12 12:56:51;;;;;;;6.45;5.75;;;1.20;99.90;;;;;;5030831;28;20283;-50
2022/12/12 12:59:22;;;;;;;5.90;5.22;;;0.90;99.90;;;;;;5030647;28;20234;-50
2022/12/12 13:01:51;;;;;;;7.50;5.72;;;0.30;99.90;;;;;;5030562;28;20217;-50
2022/12/12 13:04:24;;;;;;;8.48;6.07;;;0.90;99.90;;;;;;5031327;28;20688;-50
2022/12/12 13:06:57;;;;;;;7.07;5.68;;;1.60;99.90;;;;;;5031464;28;20649;-51
2022/12/12 13:09:33;;;;;;;4.88;4.38;;;1.10;99.90;;;;;;5030471;28;20216;-48
2022/12/12 13:12:03;;;;;;;6.25;4.78;;;0.90;99.90;;;;;;5031678;28;20215;-49
2022/12/12 13:14:41;;;;;;;5.95;4.72;;;0.70;99.90;;;;;;5031398;28;20204;-50
2022/12/12 13:17:16;;;;;;;6.72;5.78;;;0.70;99.90;;;;;;5030981;28;20205;-49
2022/12/12 13:19:45;;;;;;;6.65;5.75;;;0.70;99.90;;;;;;5030321;28;20216;-51
2022/12/12 13:22:18;;;;;;;6.50;4.93;;;0.70;99.90;;;;;;5013599;28;20241;-49